Time;durP1;ratioP1;P1;durP2;ratioP2;P2;SDS_P1;SDS_P2;PMS_P1;PMS_P2;Temp;Humidity;BMP_temperature;BMP_pressure;BME280_temperature;BME280_humidity;BME280_pressure;Samples;Min_cycle;Max_cycle;Signal;HPM_P1;HPM_P2
2023/02/19 00:02:00;;;;;;;5.30;2.90;;;;;;;0.78;100.00;99493.45;107099;1275;25313;-71
2023/02/19 00:04:29;;;;;;;4.50;2.50;;;;;;;0.80;100.00;99492.78;107037;1275;25460;-70
2023/02/19 00:06:57;;;;;;;4.50;2.50;;;;;;;0.81;100.00;99500.17;107087;1275;25253;-70
2023/02/19 00:09:27;;;;;;;7.50;3.00;;;;;;;0.82;100.00;99495.09;107066;1275;25360;-72
2023/02/19 00:11:55;;;;;;;8.90;3.50;;;;;;;0.84;100.00;99494.27;106305;1275;1003309;-70
2023/02/19 00:14:24;;;;;;;8.00;3.40;;;;;;;0.84;100.00;99496.50;107084;1275;25297;-71
2023/02/19 00:16:52;;;;;;;8.10;3.40;;;;;;;0.84;100.00;99494.38;106991;1275;24203;-71
2023/02/19 00:19:24;;;;;;;9.70;3.70;;;;;;;0.84;100.00;99499.52;106321;1275;1003025;-71
2023/02/19 00:21:53;;;;;;;12.30;3.90;;;;;;;0.84;100.00;99508.55;107061;1275;25340;-70
2023/02/19 00:24:22;;;;;;;11.90;4.40;;;;;;;0.84;100.00;99510.52;107018;1275;22531;-73
2023/02/19 00:26:52;;;;;;;10.00;4.00;;;;;;;0.85;100.00;99501.42;106259;1275;1003818;-71
2023/02/19 00:29:21;;;;;;;7.80;3.90;;;;;;;0.85;100.00;99509.23;107005;1275;25409;-71
2023/02/19 00:31:50;;;;;;;8.70;3.00;;;;;;;0.85;100.00;99504.10;106923;1275;22533;-71
2023/02/19 00:34:19;;;;;;;10.10;3.20;;;;;;;0.85;100.00;99500.38;106890;1275;25350;-71
2023/02/19 00:36:48;;;;;;;6.00;2.80;;;;;;;0.84;100.00;99510.35;107030;1275;22567;-71
2023/02/19 00:39:17;;;;;;;6.80;2.60;;;;;;;0.85;100.00;99515.23;107050;1275;25546;-71
2023/02/19 00:41:46;;;;;;;6.20;2.90;;;;;;;0.86;100.00;99523.00;106953;1275;26623;-71
2023/02/19 00:44:15;;;;;;;3.10;2.80;;;;;;;0.86;100.00;99516.94;106890;1275;26610;-70
2023/02/19 00:46:45;;;;;;;4.00;2.60;;;;;;;0.87;100.00;99514.35;106792;1275;22523;-70
2023/02/19 00:49:19;;;;;;;6.50;2.90;;;;;;;0.87;100.00;99518.80;106892;1275;25495;-71
2023/02/19 00:51:48;;;;;;;6.10;3.00;;;;;;;0.87;100.00;99515.98;107023;1275;25427;-71
2023/02/19 00:54:18;;;;;;;6.00;2.80;;;;;;;0.88;100.00;99526.77;107071;1267;25357;-70
2023/02/19 00:56:47;;;;;;;6.00;2.80;;;;;;;0.88;100.00;99529.76;107015;1275;25350;-71
2023/02/19 00:59:16;;;;;;;7.40;2.80;;;;;;;0.88;100.00;99531.35;107119;1275;25351;-71
2023/02/19 01:01:45;;;;;;;6.60;2.60;;;;;;;0.88;100.00;99532.77;107003;1275;22614;-70
2023/02/19 01:04:15;;;;;;;6.00;2.60;;;;;;;0.88;100.00;99531.34;107021;1275;25301;-71
2023/02/19 01:06:44;;;;;;;7.70;2.20;;;;;;;0.87;100.00;99529.98;106338;1275;1003005;-72
2023/02/19 01:09:13;;;;;;;5.40;2.60;;;;;;;0.88;100.00;99533.85;106980;1275;26528;-72
2023/02/19 01:11:47;;;;;;;6.30;2.80;;;;;;;0.88;100.00;99526.90;107062;1275;25256;-71
2023/02/19 01:14:15;;;;;;;5.90;2.90;;;;;;;0.89;100.00;99538.02;107036;1275;25300;-70
2023/02/19 01:16:44;;;;;;;10.60;3.20;;;;;;;0.90;100.00;99535.26;107045;1275;24285;-70
2023/02/19 01:19:12;;;;;;;6.90;3.30;;;;;;;0.91;100.00;99537.29;107043;1275;25253;-71
2023/02/19 01:21:41;;;;;;;5.30;3.20;;;;;;;0.92;100.00;99543.64;107049;1275;25366;-70
2023/02/19 01:24:13;;;;;;;8.10;3.00;;;;;;;0.92;100.00;99548.79;106351;1275;1003309;-70
2023/02/19 01:26:42;;;;;;;8.10;3.10;;;;;;;0.92;100.00;99553.17;106830;1275;25375;-69
2023/02/19 01:29:13;;;;;;;6.00;2.80;;;;;;;0.92;100.00;99554.98;107065;1275;25574;-71
2023/02/19 01:31:41;;;;;;;10.50;3.20;;;;;;;0.91;100.00;99560.37;107091;1275;22526;-71
2023/02/19 01:34:11;;;;;;;6.10;3.20;;;;;;;0.90;100.00;99562.98;106976;1275;25243;-71
2023/02/19 01:36:41;;;;;;;6.50;3.00;;;;;;;0.89;100.00;99564.99;107091;1275;25433;-71
2023/02/19 01:39:09;;;;;;;11.50;3.20;;;;;;;0.89;100.00;99571.55;107055;1275;22531;-70
2023/02/19 01:41:41;;;;;;;7.90;2.90;;;;;;;0.89;100.00;99572.07;106160;1275;1002974;-70
2023/02/19 01:44:10;;;;;;;6.30;3.10;;;;;;;0.90;100.00;99574.67;107070;1275;25418;-71
2023/02/19 01:46:40;;;;;;;4.70;2.40;;;;;;;0.89;100.00;99571.33;106101;1275;1014713;-71
2023/02/19 01:49:22;;;;;;;5.40;2.70;;;;;;;0.90;100.00;99577.52;107081;1275;22628;-71
2023/02/19 01:52:03;;;;;;;5.30;2.60;;;;;;;0.91;100.00;99569.09;107028;1275;25284;-72
2023/02/19 01:54:35;;;;;;;5.20;2.90;;;;;;;0.92;100.00;99569.36;107061;1275;25384;-72
2023/02/19 01:57:05;;;;;;;4.00;2.90;;;;;;;0.93;100.00;99572.29;106913;1275;25274;-72
2023/02/19 01:59:34;;;;;;;6.30;2.80;;;;;;;0.95;100.00;99570.30;107103;1275;25256;-71
2023/02/19 02:02:03;;;;;;;6.50;2.90;;;;;;;0.97;100.00;99573.78;106856;1275;26738;-72
2023/02/19 02:04:32;;;;;;;6.80;3.20;;;;;;;0.96;100.00;99579.31;106917;1275;25429;-70
2023/02/19 02:07:02;;;;;;;6.90;2.90;;;;;;;0.94;100.00;99586.52;106225;1275;1003677;-71
2023/02/19 02:12:20;;;;;;;3.90;2.60;;;;;;;0.90;100.00;99594.91;106875;1275;25395;-72
2023/02/19 02:14:49;;;;;;;5.40;3.00;;;;;;;0.88;100.00;99607.09;107081;1275;25310;-70
2023/02/19 02:17:24;;;;;;;5.30;2.70;;;;;;;0.87;100.00;99613.73;107010;1275;24260;-71
2023/02/19 02:20:29;;;;;;;7.30;2.90;;;;;;;0.88;100.00;99623.61;107070;1275;25255;-70
2023/02/19 02:23:09;;;;;;;6.80;3.10;;;;;;;0.89;100.00;99606.70;107059;1275;22533;-71
2023/02/19 02:25:54;;;;;;;8.10;2.60;;;;;;;0.91;100.00;99624.46;107041;1270;22533;-71
2023/02/19 02:28:26;;;;;;;6.90;3.00;;;;;;;0.92;100.00;99621.73;107052;1275;23884;-71
2023/02/19 02:30:58;;;;;;;4.90;2.50;;;;;;;0.92;100.00;99637.85;106161;1275;1016108;-71
2023/02/19 02:33:31;;;;;;;6.70;2.60;;;;;;;0.92;100.00;99649.05;106805;1275;22532;-71
2023/02/19 02:36:04;;;;;;;5.30;2.50;;;;;;;0.91;100.00;99655.11;106955;1275;22640;-71
2023/02/19 02:38:35;;;;;;;5.60;2.60;;;;;;;0.91;100.00;99654.05;106906;1275;22950;-72
2023/02/19 02:41:04;;;;;;;7.20;2.90;;;;;;;0.91;100.00;99657.44;107011;1275;25412;-72
2023/02/19 02:43:33;;;;;;;10.00;3.10;;;;;;;0.90;100.00;99658.60;106907;1275;25239;-72
2023/02/19 02:46:03;;;;;;;8.30;2.70;;;;;;;0.89;100.00;99668.64;107076;1275;22538;-70
2023/02/19 02:49:08;;;;;;;5.20;2.40;;;;;;;0.87;100.00;99672.02;106311;1275;1003001;-71
2023/02/19 02:51:49;;;;;;;6.00;2.40;;;;;;;0.86;100.00;99658.42;106862;1275;25354;-71
2023/02/19 02:57:13;;;;;;;5.00;2.60;;;;;;;0.81;100.00;99676.71;107087;1275;22519;-71
2023/02/19 02:59:49;;;;;;;7.00;2.60;;;;;;;0.78;100.00;99691.48;106351;1275;1003155;-71
2023/02/19 03:02:24;;;;;;;7.60;2.80;;;;;;;0.78;100.00;99701.61;107083;1275;25273;-71
2023/02/19 03:08:11;;;;;;;4.30;2.40;;;;;;;0.74;100.00;99701.89;106998;1275;25432;-72
2023/02/19 03:10:44;;;;;;;5.50;2.80;;;;;;;0.72;100.00;99709.64;106958;1275;25310;-71
2023/02/19 03:19:18;;;;;;;4.40;2.80;;;;;;;0.70;100.00;99717.64;107062;1275;25386;-71
2023/02/19 03:22:12;;;;;;;8.50;3.90;;;;;;;0.68;100.00;99721.83;106936;1275;25309;-71
2023/02/19 03:27:33;;;;;;;4.60;2.50;;;;;;;0.68;100.00;99727.36;107050;1275;23951;-73
2023/02/19 03:30:08;;;;;;;4.90;2.30;;;;;;;0.67;100.00;99740.33;107023;1275;25291;-71
2023/02/19 03:32:47;;;;;;;3.10;2.10;;;;;;;0.66;100.00;99737.39;106995;1275;25400;-71
2023/02/19 03:35:19;;;;;;;3.90;2.20;;;;;;;0.65;100.00;99732.02;107107;1275;22628;-72
2023/02/19 03:37:56;;;;;;;6.50;2.40;;;;;;;0.65;100.00;99743.92;106903;1275;24351;-71
2023/02/19 03:40:27;;;;;;;5.30;2.70;;;;;;;0.64;100.00;99743.96;107050;1275;24202;-71
2023/02/19 03:43:39;;;;;;;6.70;2.80;;;;;;;0.64;100.00;99745.56;106808;1257;25572;-71
2023/02/19 03:46:12;;;;;;;4.20;2.70;;;;;;;0.66;100.00;99734.23;105959;1275;1002941;-70
2023/02/19 03:49:01;;;;;;;4.50;3.00;;;;;;;0.66;100.00;99751.83;106877;1275;25265;-71
2023/02/19 03:51:37;;;;;;;9.00;3.40;;;;;;;0.63;100.00;99746.52;105961;1275;1003611;-70
2023/02/19 03:54:28;;;;;;;8.70;3.60;;;;;;;0.63;100.00;99755.96;107132;1275;22532;-71
2023/02/19 03:57:03;;;;;;;6.50;2.90;;;;;;;0.62;100.00;99751.21;106212;1275;1003511;-72
2023/02/19 03:59:40;;;;;;;15.40;4.30;;;;;;;0.62;100.00;99754.09;106937;1275;22534;-71
2023/02/19 04:02:22;;;;;;;12.10;4.30;;;;;;;0.61;100.00;99755.38;106922;1275;22530;-71
2023/02/19 04:05:05;;;;;;;13.40;4.30;;;;;;;0.61;100.00;99757.33;107013;1275;25319;-71
2023/02/19 04:07:38;;;;;;;10.40;3.80;;;;;;;0.62;100.00;99761.55;106992;1275;25438;-71
2023/02/19 04:10:06;;;;;;;14.60;4.80;;;;;;;0.63;100.00;99762.66;106891;1275;22531;-71
2023/02/19 04:12:39;;;;;;;12.40;4.30;;;;;;;0.66;100.00;99762.85;107068;1275;26520;-73
2023/02/19 04:15:10;;;;;;;13.40;4.10;;;;;;;0.67;100.00;99759.02;107094;1275;24229;-72
2023/02/19 04:17:49;;;;;;;8.60;3.20;;;;;;;0.67;100.00;99764.83;107041;1275;22733;-70
2023/02/19 04:20:17;;;;;;;9.30;3.20;;;;;;;0.68;100.00;99769.00;106940;1275;22535;-71
2023/02/19 04:22:46;;;;;;;14.40;3.60;;;;;;;0.69;100.00;99772.13;106974;1275;22559;-71
2023/02/19 04:25:14;;;;;;;8.50;3.00;;;;;;;0.70;100.00;99773.89;106206;1275;1003014;-71
2023/02/19 04:27:43;;;;;;;9.30;3.40;;;;;;;0.70;100.00;99777.21;106898;1275;22773;-71
2023/02/19 04:30:12;;;;;;;9.20;3.40;;;;;;;0.69;100.00;99777.61;106318;1275;1002737;-71
2023/02/19 04:32:41;;;;;;;14.20;3.80;;;;;;;0.69;100.00;99779.93;106981;1275;25276;-70
2023/02/19 04:35:11;;;;;;;7.50;3.10;;;;;;;0.70;100.00;99784.12;107056;1275;26526;-71
2023/02/19 04:37:41;;;;;;;4.90;2.90;;;;;;;0.70;100.00;99781.15;107017;1275;25361;-70
2023/02/19 04:40:09;;;;;;;8.80;3.00;;;;;;;0.70;100.00;99779.17;106832;1275;23863;-71
2023/02/19 04:42:38;;;;;;;7.60;3.10;;;;;;;0.72;100.00;99784.00;106959;1275;25380;-71
2023/02/19 04:45:07;;;;;;;8.40;3.40;;;;;;;0.72;100.00;99785.39;106206;1275;1003534;-72
2023/02/19 04:47:37;;;;;;;6.80;2.90;;;;;;;0.73;100.00;99784.63;106959;1275;25309;-71
2023/02/19 04:50:06;;;;;;;6.50;3.20;;;;;;;0.73;100.00;99783.20;106251;1275;1003070;-72
2023/02/19 04:52:35;;;;;;;8.40;3.70;;;;;;;0.74;100.00;99782.91;106983;1275;26502;-71
2023/02/19 04:55:05;;;;;;;10.60;3.80;;;;;;;0.77;100.00;99785.45;106912;1275;25262;-70
2023/02/19 04:57:34;;;;;;;13.20;3.80;;;;;;;0.77;100.00;99783.42;107088;1275;22534;-71
2023/02/19 05:00:03;;;;;;;8.10;3.90;;;;;;;0.78;100.00;99789.99;107108;1275;22590;-72
2023/02/19 05:02:32;;;;;;;9.40;4.00;;;;;;;0.77;100.00;99785.08;107068;1275;25430;-71
2023/02/19 05:05:01;;;;;;;6.60;3.80;;;;;;;0.74;100.00;99786.48;106956;1275;25358;-71
2023/02/19 05:07:29;;;;;;;8.00;3.80;;;;;;;0.74;100.00;99788.14;106956;1275;26624;-72
2023/02/19 05:09:59;;;;;;;9.50;4.20;;;;;;;0.71;100.00;99790.61;106975;1275;26523;-70
2023/02/19 05:12:29;;;;;;;8.40;4.10;;;;;;;0.69;100.00;99792.73;106968;1275;25504;-70
2023/02/19 05:14:58;;;;;;;10.30;4.20;;;;;;;0.68;100.00;99797.91;106955;1275;26635;-71
2023/02/19 05:17:27;;;;;;;13.50;4.70;;;;;;;0.69;100.00;99799.83;106908;1275;26684;-72
2023/02/19 05:19:59;;;;;;;13.00;4.40;;;;;;;0.71;100.00;99805.33;107025;1275;25245;-72
2023/02/19 05:22:29;;;;;;;15.40;4.90;;;;;;;0.73;100.00;99804.17;107075;1275;24471;-71
2023/02/19 05:25:01;;;;;;;12.70;4.60;;;;;;;0.72;100.00;99802.12;106997;1275;25411;-71
2023/02/19 05:27:30;;;;;;;9.10;4.10;;;;;;;0.71;100.00;99802.87;107066;1275;26691;-70
2023/02/19 05:29:59;;;;;;;11.40;4.00;;;;;;;0.69;100.00;99799.65;107042;1275;22531;-72
2023/02/19 05:32:27;;;;;;;10.50;4.20;;;;;;;0.68;100.00;99790.35;106971;1275;26516;-71
2023/02/19 05:34:56;;;;;;;12.70;5.10;;;;;;;0.69;100.00;99795.27;107073;1275;25256;-70
2023/02/19 05:37:26;;;;;;;8.20;4.00;;;;;;;0.72;100.00;99793.40;107051;1275;25343;-70
2023/02/19 05:39:54;;;;;;;9.20;3.90;;;;;;;0.78;100.00;99791.75;106318;1275;1003151;-72
2023/02/19 05:42:23;;;;;;;14.40;6.20;;;;;;;0.84;100.00;99791.41;107055;1275;24226;-72
2023/02/19 05:44:52;;;;;;;11.00;5.60;;;;;;;0.92;100.00;99789.57;106966;1275;26750;-72
2023/02/19 05:47:21;;;;;;;15.20;5.70;;;;;;;1.02;100.00;99790.44;106964;1275;25246;-71
2023/02/19 05:49:49;;;;;;;9.90;4.70;;;;;;;1.14;100.00;99785.49;106970;1275;26510;-71
2023/02/19 05:52:19;;;;;;;12.10;4.30;;;;;;;1.27;100.00;99778.81;106214;1275;1002990;-71
2023/02/19 05:54:47;;;;;;;8.00;3.90;;;;;;;1.41;100.00;99774.17;106959;1275;26498;-72
2023/02/19 05:57:16;;;;;;;9.30;3.90;;;;;;;1.54;100.00;99772.44;106189;1275;1003096;-70
2023/02/19 05:59:44;;;;;;;10.10;4.20;;;;;;;1.64;100.00;99771.50;106850;1275;22549;-71
2023/02/19 06:02:15;;;;;;;9.30;4.20;;;;;;;1.70;100.00;99772.10;106873;1275;26002;-71
2023/02/19 06:04:43;;;;;;;10.20;3.90;;;;;;;1.73;100.00;99771.85;106918;1275;25331;-71
2023/02/19 06:07:12;;;;;;;9.90;3.60;;;;;;;1.76;100.00;99777.35;106906;1275;25303;-72
2023/02/19 06:09:42;;;;;;;7.90;3.70;;;;;;;1.78;100.00;99773.20;106880;1275;25336;-70
2023/02/19 06:12:11;;;;;;;10.60;3.20;;;;;;;1.80;100.00;99772.55;106914;1275;26747;-71
2023/02/19 06:14:41;;;;;;;7.90;3.30;;;;;;;1.82;100.00;99777.34;106934;1275;25477;-71
2023/02/19 06:17:10;;;;;;;4.80;3.20;;;;;;;1.86;100.00;99784.17;106945;1275;25502;-71
2023/02/19 06:19:38;;;;;;;10.80;3.60;;;;;;;1.91;100.00;99789.27;106957;1275;22546;-71
2023/02/19 06:22:08;;;;;;;6.90;3.10;;;;;;;1.95;100.00;99793.39;107055;1275;25414;-70
2023/02/19 06:24:40;;;;;;;9.90;3.90;;;;;;;1.99;100.00;99795.61;106824;1275;26517;-72
2023/02/19 06:27:09;;;;;;;11.20;3.90;;;;;;;2.00;100.00;99798.91;106864;1275;25255;-72
2023/02/19 06:29:37;;;;;;;8.70;3.90;;;;;;;1.98;100.00;99799.20;107011;1275;22649;-73
2023/02/19 06:32:06;;;;;;;8.90;3.60;;;;;;;2.01;100.00;99805.39;107055;1275;25553;-70
2023/02/19 06:34:35;;;;;;;9.30;3.90;;;;;;;2.03;100.00;99801.11;106863;1275;23101;-71
2023/02/19 06:37:04;;;;;;;9.30;3.80;;;;;;;2.05;100.00;99802.55;107031;1275;25313;-74
2023/02/19 06:39:32;;;;;;;7.80;3.60;;;;;;;2.08;100.00;99803.39;106873;1275;24241;-72
2023/02/19 06:42:01;;;;;;;9.60;4.20;;;;;;;2.13;100.00;99803.51;106964;1275;25478;-71
2023/02/19 06:44:30;;;;;;;8.90;3.80;;;;;;;2.21;100.00;99801.80;106195;1275;1002917;-72
2023/02/19 06:46:59;;;;;;;8.30;4.00;;;;;;;2.34;100.00;99800.46;106883;1275;25452;-73
2023/02/19 06:49:28;;;;;;;12.80;4.40;;;;;;;2.50;100.00;99798.27;106864;1275;26574;-71
2023/02/19 06:51:59;;;;;;;6.50;3.80;;;;;;;2.66;100.00;99796.08;106901;1275;25455;-71
2023/02/19 06:54:28;;;;;;;9.60;4.10;;;;;;;2.80;100.00;99791.85;106147;1275;1002890;-73
2023/02/19 06:56:58;;;;;;;9.40;4.40;;;;;;;2.94;100.00;99791.98;106885;1275;23765;-72
2023/02/19 06:59:27;;;;;;;13.10;4.10;;;;;;;3.10;100.00;99794.37;106250;1275;1003136;-74
2023/02/19 07:01:56;;;;;;;7.90;3.80;;;;;;;3.22;100.00;99793.55;106892;1275;22614;-75
2023/02/19 07:04:24;;;;;;;6.40;3.10;;;;;;;3.29;100.00;99790.79;106841;1275;25441;-75
2023/02/19 07:06:55;;;;;;;9.60;4.30;;;;;;;3.37;100.00;99792.55;106941;1275;25255;-72
2023/02/19 19:30:27;;;;;;;12.70;4.30;;;;;;;0.50;100.00;99412.46;104651;1295;1002570;-76
2023/02/19 19:33:00;;;;;;;12.60;4.60;;;;;;;0.56;100.00;99371.02;106669;1285;228959;-75
2023/02/19 19:35:29;;;;;;;14.20;5.00;;;;;;;0.56;100.00;99379.19;106883;1285;26563;-76
2023/02/19 19:37:58;;;;;;;15.30;6.20;;;;;;;0.55;100.00;99387.79;106934;1285;22658;-74
2023/02/19 19:40:26;;;;;;;21.00;7.30;;;;;;;0.53;100.00;99396.13;107410;1278;23863;-75
2023/02/19 19:42:55;;;;;;;19.10;7.00;;;;;;;0.52;100.00;99403.98;107430;1278;22553;-75
2023/02/19 19:45:24;;;;;;;19.70;7.10;;;;;;;0.53;100.00;99410.10;107424;1278;24241;-76
2023/02/19 19:47:53;;;;;;;16.30;6.40;;;;;;;0.53;100.00;99412.21;107502;1278;24295;-75
2023/02/19 19:50:22;;;;;;;18.10;6.50;;;;;;;0.55;100.00;99421.81;107541;1278;26560;-74
2023/02/19 19:52:51;;;;;;;20.90;7.60;;;;;;;0.57;100.00;99430.38;107433;1278;26500;-75
2023/02/19 19:55:22;;;;;;;20.90;7.80;;;;;;;0.58;100.00;99428.00;107530;1278;22527;-75
2023/02/19 19:57:52;;;;;;;19.90;7.00;;;;;;;0.60;100.00;99431.23;107489;1278;23983;-75
2023/02/19 20:00:23;;;;;;;16.10;5.80;;;;;;;0.59;100.00;99433.02;107528;1278;26637;-77
2023/02/19 20:02:51;;;;;;;15.60;5.70;;;;;;;0.60;100.00;99434.42;107293;1278;22527;-76
2023/02/19 20:05:21;;;;;;;12.10;5.30;;;;;;;0.59;100.00;99439.13;107536;1278;23934;-75
2023/02/19 20:07:53;;;;;;;15.40;4.90;;;;;;;0.56;100.00;99444.11;107430;1278;24023;-77
2023/02/19 20:10:23;;;;;;;11.10;4.30;;;;;;;0.55;100.00;99449.50;107478;1278;23768;-75
2023/02/19 20:12:52;;;;;;;7.60;4.20;;;;;;;0.54;100.00;99451.33;107521;1278;25439;-75
2023/02/19 20:15:21;;;;;;;9.80;4.40;;;;;;;0.54;100.00;99460.75;107469;1278;25303;-75
2023/02/19 20:17:50;;;;;;;10.60;4.20;;;;;;;0.53;100.00;99464.38;107548;1278;22492;-73
2023/02/19 20:20:18;;;;;;;10.60;4.20;;;;;;;0.52;100.00;99477.43;107461;1278;22527;-76
2023/02/19 20:22:51;;;;;;;9.80;3.90;;;;;;;0.51;100.00;99488.27;107402;1278;22525;-75
2023/02/19 20:25:21;;;;;;;8.00;3.90;;;;;;;0.51;100.00;99494.80;107585;1278;26641;-75
2023/02/19 20:27:50;;;;;;;9.20;3.80;;;;;;;0.52;100.00;99502.03;107386;1278;24515;-75
2023/02/19 20:30:21;;;;;;;8.60;3.90;;;;;;;0.52;100.00;99515.35;107417;1278;24222;-75
2023/02/19 20:32:49;;;;;;;13.00;4.70;;;;;;;0.51;100.00;99522.02;107231;1278;25310;-76
2023/02/19 20:35:18;;;;;;;18.10;6.40;;;;;;;0.49;100.00;99536.91;107413;1278;25450;-76
2023/02/19 20:37:48;;;;;;;16.00;6.40;;;;;;;0.45;100.00;99542.53;107227;1278;25439;-76
2023/02/19 20:40:17;;;;;;;18.50;6.90;;;;;;;0.40;100.00;99567.18;106662;1278;1002937;-75
2023/02/19 20:42:46;;;;;;;17.50;6.60;;;;;;;0.34;100.00;99582.73;107505;1278;22540;-75
2023/02/19 20:45:15;;;;;;;22.30;6.90;;;;;;;0.30;100.00;99603.18;107338;1278;22475;-75
2023/02/19 20:47:45;;;;;;;19.40;6.30;;;;;;;0.28;100.00;99615.99;107447;1277;25439;-76
2023/02/19 20:50:19;;;;;;;19.50;7.10;;;;;;;0.27;100.00;99637.69;107416;1277;25513;-74
2023/02/19 20:52:48;;;;;;;17.10;6.10;;;;;;;0.24;100.00;99660.02;107470;1277;24186;-75
2023/02/19 20:55:18;;;;;;;10.70;4.70;;;;;;;0.22;100.00;99679.67;107488;1277;25449;-76
2023/02/19 20:57:46;;;;;;;10.70;4.80;;;;;;;0.21;100.00;99700.88;106731;1277;1003020;-76
2023/02/19 21:00:15;;;;;;;9.90;4.60;;;;;;;0.22;100.00;99713.77;107360;1277;25446;-74
2023/02/19 21:02:46;;;;;;;12.80;5.00;;;;;;;0.24;100.00;99723.34;107516;1277;25446;-76
2023/02/19 21:05:16;;;;;;;10.90;4.20;;;;;;;0.26;100.00;99730.66;106685;1277;1003623;-75
2023/02/19 21:07:45;;;;;;;11.50;4.80;;;;;;;0.29;100.00;99746.41;107484;1277;22541;-76
2023/02/19 21:10:14;;;;;;;17.90;6.50;;;;;;;0.30;100.00;99751.45;106667;1277;1003123;-75
2023/02/19 21:12:51;;;;;;;18.50;7.30;;;;;;;0.30;100.00;99762.95;106870;1277;1003242;-75
2023/02/19 21:15:20;;;;;;;16.50;6.90;;;;;;;0.29;100.00;99774.92;109463;1277;25455;-74
2023/02/19 21:17:48;;;;;;;17.10;6.80;;;;;;;0.30;100.00;99784.41;108758;1277;25439;-76
2023/02/19 21:20:17;;;;;;;12.90;5.70;;;;;;;0.32;100.00;99795.44;107597;1277;25442;-75
2023/02/19 21:22:47;;;;;;;17.50;6.20;;;;;;;0.32;100.00;99805.73;107517;1277;25462;-75
2023/02/19 21:25:16;;;;;;;13.10;5.40;;;;;;;0.32;100.00;99819.92;107572;1277;23867;-77
2023/02/19 21:27:45;;;;;;;15.30;6.50;;;;;;;0.31;100.00;99834.92;107520;1277;25510;-75
2023/02/19 21:30:16;;;;;;;14.20;6.10;;;;;;;0.30;100.00;99846.46;106703;1277;1002911;-75
2023/02/19 21:32:45;;;;;;;16.00;6.60;;;;;;;0.30;100.00;99853.58;107528;1276;23914;-75
2023/02/19 21:35:13;;;;;;;15.20;5.60;;;;;;;0.30;100.00;99862.60;106713;1277;1002913;-76
2023/02/19 21:37:42;;;;;;;18.80;6.00;;;;;;;0.30;100.00;99871.46;107434;1277;22541;-76
2023/02/19 21:40:12;;;;;;;11.30;4.40;;;;;;;0.28;100.00;99874.82;107478;1277;25491;-75
2023/02/19 21:42:41;;;;;;;14.40;5.70;;;;;;;0.26;100.00;99888.75;107487;1276;25439;-75
2023/02/19 21:45:09;;;;;;;15.90;5.50;;;;;;;0.26;100.00;99899.91;107431;1277;22759;-75
2023/02/19 21:47:38;;;;;;;15.70;5.10;;;;;;;0.31;100.00;99910.04;107479;1277;25439;-75
2023/02/19 21:50:07;;;;;;;10.40;4.50;;;;;;;0.36;100.00;99919.61;106694;1277;1002991;-76
2023/02/19 21:52:41;;;;;;;11.00;5.10;;;;;;;0.42;100.00;99935.92;107428;1277;22862;-75
2023/02/19 21:55:09;;;;;;;13.40;5.30;;;;;;;0.44;100.00;99936.44;106614;1277;1003346;-76
2023/02/19 21:57:38;;;;;;;16.10;5.20;;;;;;;0.45;100.00;99956.45;107447;1277;22756;-78
2023/02/19 22:00:07;;;;;;;19.10;5.90;;;;;;;0.44;100.00;99968.18;107470;1277;24206;-74
2023/02/19 22:02:36;;;;;;;13.40;5.30;;;;;;;0.45;100.00;99977.92;107385;1277;22571;-75
2023/02/19 22:05:05;;;;;;;12.70;5.70;;;;;;;0.44;100.00;99985.96;107458;1277;22541;-76
2023/02/19 22:07:34;;;;;;;12.10;5.30;;;;;;;0.44;100.00;99993.41;107358;1277;25421;-76
2023/02/19 22:10:04;;;;;;;12.80;4.90;;;;;;;0.44;100.00;100002.29;107409;1277;25433;-75
2023/02/19 22:12:32;;;;;;;10.70;4.90;;;;;;;0.43;100.00;100016.36;107447;1277;22527;-76
2023/02/19 22:15:02;;;;;;;9.70;4.60;;;;;;;0.41;100.00;100023.23;107484;1277;25436;-78
2023/02/19 22:17:31;;;;;;;12.90;4.80;;;;;;;0.40;100.00;100030.90;106686;1277;1003297;-77
2023/02/19 22:19:59;;;;;;;12.10;5.10;;;;;;;0.38;100.00;100036.57;107377;1277;22545;-76
2023/02/19 22:22:30;;;;;;;12.10;5.00;;;;;;;0.35;100.00;100047.04;107432;1277;26518;-76
2023/02/19 22:25:00;;;;;;;13.60;5.10;;;;;;;0.31;100.00;100052.80;107416;1277;24151;-75
2023/02/19 22:27:29;;;;;;;10.70;4.70;;;;;;;0.30;100.00;100059.66;107434;1277;25443;-74
2023/02/19 22:29:58;;;;;;;10.70;4.60;;;;;;;0.28;100.00;100071.13;107305;1277;24226;-76
2023/02/19 22:32:26;;;;;;;11.50;5.40;;;;;;;0.26;100.00;100078.16;107431;1277;24303;-76
2023/02/19 22:34:55;;;;;;;12.60;5.00;;;;;;;0.25;100.00;100087.05;107418;1277;25436;-76
2023/02/19 22:37:24;;;;;;;12.90;5.00;;;;;;;0.25;100.00;100095.25;107395;1277;25436;-75
2023/02/19 22:39:53;;;;;;;11.50;4.80;;;;;;;0.25;100.00;100101.79;107372;1277;22542;-75
2023/02/19 22:42:23;;;;;;;12.30;5.30;;;;;;;0.25;100.00;100103.56;106621;1277;1003323;-76
2023/02/19 22:44:51;;;;;;;13.80;5.50;;;;;;;0.26;100.00;100108.30;107455;1277;25440;-75
2023/02/19 22:47:21;;;;;;;13.10;5.00;;;;;;;0.26;100.00;100111.14;107413;1277;25420;-75
2023/02/19 22:49:50;;;;;;;8.40;4.70;;;;;;;0.26;100.00;100119.11;107468;1277;25465;-75
2023/02/19 22:52:20;;;;;;;9.80;4.70;;;;;;;0.26;100.00;100119.96;106752;1277;1002986;-76
2023/02/19 22:54:51;;;;;;;12.90;5.20;;;;;;;0.27;100.00;100119.58;107414;1277;22532;-75
2023/02/19 22:57:20;;;;;;;13.70;5.30;;;;;;;0.29;100.00;100125.14;107406;1277;25300;-74
2023/02/19 22:59:48;;;;;;;12.30;5.20;;;;;;;0.29;100.00;100128.45;107390;1277;22546;-76
2023/02/19 23:02:17;;;;;;;11.90;5.20;;;;;;;0.30;100.00;100127.71;107358;1277;23882;-76
2023/02/19 23:04:45;;;;;;;15.40;5.10;;;;;;;0.29;100.00;100133.64;106643;1277;1003088;-76
2023/02/19 23:07:14;;;;;;;11.90;4.80;;;;;;;0.29;100.00;100136.66;107387;1277;24395;-75
2023/02/19 23:09:42;;;;;;;13.10;5.00;;;;;;;0.29;100.00;100139.46;107555;1277;22819;-75
2023/02/19 23:12:11;;;;;;;16.00;5.70;;;;;;;0.29;100.00;100137.34;107278;1277;25446;-76
2023/02/19 23:14:39;;;;;;;11.60;5.10;;;;;;;0.29;100.00;100139.83;107397;1277;22533;-75
2023/02/19 23:17:08;;;;;;;11.90;5.50;;;;;;;0.29;100.00;100141.78;107442;1277;22529;-76
2023/02/19 23:19:38;;;;;;;7.80;4.50;;;;;;;0.28;100.00;100145.02;107367;1277;26525;-75
2023/02/19 23:22:06;;;;;;;9.80;4.60;;;;;;;0.26;100.00;100153.14;107515;1277;25509;-75
2023/02/19 23:24:35;;;;;;;10.70;4.80;;;;;;;0.25;100.00;100156.77;107441;1277;25926;-76
2023/02/19 23:27:05;;;;;;;14.30;5.30;;;;;;;0.24;100.00;100161.66;107124;1277;26003;-76
2023/02/19 23:29:34;;;;;;;10.90;5.00;;;;;;;0.22;100.00;100159.66;107467;1277;23790;-74
2023/02/19 23:32:03;;;;;;;15.10;5.10;;;;;;;0.20;100.00;100162.77;107456;1277;22540;-75
2023/02/19 23:34:32;;;;;;;12.50;5.50;;;;;;;0.19;100.00;100163.17;106874;1277;1003039;-76
2023/02/19 23:37:01;;;;;;;16.10;5.50;;;;;;;0.19;100.00;100158.93;107490;1277;22581;-76
2023/02/19 23:39:29;;;;;;;10.70;4.80;;;;;;;0.20;100.00;100159.63;107558;1277;25437;-75
2023/02/19 23:42:01;;;;;;;12.40;5.30;;;;;;;0.20;100.00;100160.85;107487;1277;25577;-76
2023/02/19 23:44:31;;;;;;;11.10;5.60;;;;;;;0.20;100.00;100163.32;107471;1277;25536;-75
2023/02/19 23:46:59;;;;;;;11.40;5.50;;;;;;;0.20;100.00;100169.67;106756;1277;1002923;-77
2023/02/19 23:49:28;;;;;;;10.80;5.10;;;;;;;0.21;100.00;100167.34;107480;1277;25444;-76
2023/02/19 23:51:57;;;;;;;13.40;5.00;;;;;;;0.22;100.00;100169.39;106724;1277;1003021;-74
2023/02/19 23:54:25;;;;;;;12.60;5.00;;;;;;;0.22;100.00;100169.17;106830;1277;1003696;-74
2023/02/19 23:56:54;;;;;;;12.50;5.30;;;;;;;0.24;100.00;100171.07;107536;1277;25432;-75
2023/02/19 23:59:23;;;;;;;10.20;4.90;;;;;;;0.24;100.00;100166.27;107512;1277;23885;-75
